createdAt,value
2023-01-12T00:00:12.465Z,994.16
2023-01-12T00:01:12.462Z,994.14
2023-01-12T00:02:12.573Z,994.12
2023-01-12T00:03:12.496Z,994.2
2023-01-12T00:04:12.973Z,994.24
2023-01-12T00:05:12.525Z,994.25
2023-01-12T00:06:12.537Z,994.18
2023-01-12T00:07:12.561Z,994.2
2023-01-12T00:08:12.570Z,994.2
2023-01-12T00:09:12.592Z,994.19
2023-01-12T00:10:12.601Z,994.19
2023-01-12T00:11:12.642Z,994.16
2023-01-12T00:12:12.673Z,994.24
2023-01-12T00:13:12.648Z,994.21
2023-01-12T00:14:12.670Z,994.23
2023-01-12T00:15:12.693Z,994.24
2023-01-12T00:16:12.718Z,994.22
2023-01-12T00:17:12.717Z,994.27
2023-01-12T00:18:12.921Z,994.15
2023-01-12T00:19:13.008Z,994.18
2023-01-12T00:20:12.754Z,994.21
2023-01-12T00:21:12.971Z,994.21
2023-01-12T00:22:12.883Z,994.15
2023-01-12T00:23:12.947Z,994.18
2023-01-12T00:24:12.984Z,994.22
2023-01-12T00:25:12.979Z,994.19
2023-01-12T00:26:12.847Z,994.15
2023-01-12T00:27:12.989Z,994.16
2023-01-12T00:28:12.975Z,994.15
2023-01-12T00:29:12.991Z,994.15
2023-01-12T00:30:12.964Z,994.18
2023-01-12T00:31:12.936Z,994.13
2023-01-12T00:32:12.936Z,994.09
2023-01-12T00:33:12.949Z,994.08
2023-01-12T00:34:12.971Z,994.09
2023-01-12T00:35:12.983Z,994.12
2023-01-12T00:36:12.992Z,994.05
2023-01-12T00:37:13.021Z,994.07
2023-01-12T00:38:13.032Z,994.04
2023-01-12T00:39:13.067Z,994.08
2023-01-12T00:40:13.055Z,994.03
2023-01-12T00:41:13.071Z,993.99
2023-01-12T00:42:13.089Z,993.99
2023-01-12T00:43:13.133Z,993.99
2023-01-12T00:44:13.146Z,993.97
2023-01-12T00:45:13.135Z,993.97
2023-01-12T00:46:13.247Z,993.95
2023-01-12T00:47:13.174Z,993.96
2023-01-12T00:48:13.184Z,993.97
2023-01-12T00:49:13.194Z,993.95
2023-01-12T00:50:13.225Z,993.97
2023-01-12T00:51:13.224Z,993.96
2023-01-12T00:52:15.614Z,993.94
2023-01-12T00:53:13.255Z,993.94
2023-01-12T00:54:13.266Z,993.95
2023-01-12T00:55:13.293Z,993.93
2023-01-12T00:56:13.305Z,994
2023-01-12T00:57:13.320Z,993.92
2023-01-12T00:58:13.329Z,993.89
2023-01-12T00:59:13.368Z,993.94
2023-01-12T01:00:13.361Z,993.88
2023-01-12T01:01:13.498Z,994
2023-01-12T01:02:13.581Z,993.97
2023-01-12T01:03:13.407Z,993.87
2023-01-12T01:04:13.869Z,993.92
2023-01-12T01:05:13.442Z,993.85
2023-01-12T01:06:13.453Z,993.83
2023-01-12T01:07:13.465Z,993.84
2023-01-12T01:08:13.479Z,993.81
2023-01-12T01:09:13.497Z,993.84
2023-01-12T01:10:13.518Z,993.88
2023-01-12T01:11:13.536Z,993.88
2023-01-12T01:12:13.550Z,993.84
2023-01-12T01:13:13.561Z,993.82
2023-01-12T01:14:13.571Z,993.84
2023-01-12T01:15:13.631Z,993.83
2023-01-12T01:16:13.631Z,993.85
2023-01-12T01:17:13.643Z,993.81
2023-01-12T01:18:13.637Z,993.84
2023-01-12T01:19:13.649Z,993.84
2023-01-12T01:20:13.662Z,993.78
2023-01-12T01:21:13.683Z,993.78
2023-01-12T01:22:13.695Z,993.86
2023-01-12T01:23:13.715Z,993.8
2023-01-12T01:24:13.731Z,993.76
2023-01-12T01:25:13.742Z,993.78
2023-01-12T01:26:13.766Z,993.73
2023-01-12T01:27:13.777Z,993.73
2023-01-12T01:28:13.787Z,993.74
2023-01-12T01:29:13.810Z,993.69
2023-01-12T01:30:13.821Z,993.77
2023-01-12T01:31:13.901Z,993.77
2023-01-12T01:32:13.862Z,993.77
2023-01-12T01:33:13.867Z,993.76
2023-01-12T01:34:13.894Z,993.74
2023-01-12T01:35:13.900Z,993.83
2023-01-12T01:36:13.913Z,993.79
2023-01-12T01:37:13.935Z,993.78
2023-01-12T01:38:13.939Z,993.77
2023-01-12T01:39:13.959Z,993.83
2023-01-12T01:40:13.974Z,993.9
2023-01-12T01:41:13.997Z,993.88
2023-01-12T01:42:14.006Z,993.93
2023-01-12T01:43:14.027Z,993.88
2023-01-12T01:44:14.045Z,993.91
2023-01-12T01:45:14.055Z,993.93
2023-01-12T01:46:14.162Z,993.93
2023-01-12T01:47:14.110Z,993.89
2023-01-12T01:48:14.099Z,993.87
2023-01-12T01:49:14.114Z,993.9
2023-01-12T01:50:14.132Z,993.91
2023-01-12T01:51:14.146Z,993.93
2023-01-12T01:52:14.162Z,993.94
2023-01-12T01:53:14.178Z,993.85
2023-01-12T01:54:14.187Z,993.92
2023-01-12T01:55:14.208Z,993.87
2023-01-12T01:56:14.220Z,993.78
2023-01-12T01:57:14.240Z,993.87
2023-01-12T01:58:14.261Z,993.82
2023-01-12T01:59:14.271Z,993.82
2023-01-12T02:00:14.282Z,993.78
2023-01-12T02:01:14.364Z,993.73
2023-01-12T02:02:14.348Z,993.73
2023-01-12T02:03:14.359Z,993.67
2023-01-12T02:04:14.803Z,993.68
2023-01-12T02:05:14.358Z,993.65
2023-01-12T02:06:14.377Z,993.68
2023-01-12T02:07:14.393Z,993.63
2023-01-12T02:08:14.417Z,993.66
2023-01-12T02:09:14.434Z,993.68
2023-01-12T02:10:14.443Z,993.66
2023-01-12T02:11:14.457Z,993.7
2023-01-12T02:12:14.469Z,993.69
2023-01-12T02:13:14.487Z,993.57
2023-01-12T02:14:14.528Z,993.59
2023-01-12T02:15:14.566Z,993.56
2023-01-12T02:16:14.616Z,993.58
2023-01-12T02:17:14.566Z,993.58
2023-01-12T02:18:14.561Z,993.61
2023-01-12T02:19:14.605Z,993.56
2023-01-12T02:20:14.597Z,993.56
2023-01-12T02:21:14.611Z,993.49
2023-01-12T02:22:14.627Z,993.48
2023-01-12T02:23:14.636Z,993.54
2023-01-12T02:24:14.663Z,993.45
2023-01-12T02:25:14.673Z,993.49
2023-01-12T02:26:14.687Z,993.46
2023-01-12T02:27:14.701Z,993.43
2023-01-12T02:28:14.714Z,993.44
2023-01-12T02:29:14.740Z,993.39
2023-01-12T02:30:14.755Z,993.4
2023-01-12T02:31:14.868Z,993.45
2023-01-12T02:32:14.780Z,993.43
2023-01-12T02:33:14.793Z,993.4
2023-01-12T02:34:14.815Z,993.39
2023-01-12T02:35:14.854Z,993.34
2023-01-12T02:36:14.841Z,993.37
2023-01-12T02:37:14.856Z,993.33
2023-01-12T02:38:14.871Z,993.33
2023-01-12T02:39:14.888Z,993.38
2023-01-12T02:40:14.908Z,993.27
2023-01-12T02:41:14.915Z,993.36
2023-01-12T02:42:14.937Z,993.3
2023-01-12T02:43:14.961Z,993.38
2023-01-12T02:44:14.964Z,993.32
2023-01-12T02:45:14.979Z,993.35
2023-01-12T02:46:15.032Z,993.35
2023-01-12T02:47:15.010Z,993.23
2023-01-12T02:48:15.024Z,993.17
2023-01-12T02:49:15.045Z,993.13
2023-01-12T02:50:15.067Z,993.16
2023-01-12T02:51:15.097Z,993.14
2023-01-12T02:52:15.090Z,993.09
2023-01-12T02:53:15.114Z,993.12
2023-01-12T02:54:15.115Z,993.07
2023-01-12T02:55:15.133Z,993.07
2023-01-12T02:56:15.147Z,993.01
2023-01-12T02:57:15.166Z,992.95
2023-01-12T02:58:15.176Z,992.99
2023-01-12T02:59:15.195Z,992.97
2023-01-12T03:00:15.211Z,992.96
2023-01-12T03:01:15.384Z,993.04
2023-01-12T03:02:15.239Z,993.05
2023-01-12T03:03:15.279Z,993
2023-01-12T03:04:15.584Z,992.98
2023-01-12T03:05:15.288Z,992.97
2023-01-12T03:06:15.303Z,992.92
2023-01-12T03:07:15.343Z,992.93
2023-01-12T03:08:15.335Z,992.95
2023-01-12T03:09:15.349Z,992.93
2023-01-12T03:10:15.364Z,992.92
2023-01-12T03:11:15.381Z,992.89
2023-01-12T03:12:15.403Z,992.9
2023-01-12T03:13:15.412Z,992.9
2023-01-12T03:14:15.425Z,992.84
2023-01-12T03:15:15.446Z,992.87
2023-01-12T03:16:15.492Z,992.86
2023-01-12T03:17:15.473Z,992.86
2023-01-12T03:18:15.492Z,992.82
2023-01-12T03:19:15.509Z,992.8
2023-01-12T03:20:15.517Z,992.85
2023-01-12T03:21:15.535Z,992.89
2023-01-12T03:22:15.546Z,992.87
2023-01-12T03:23:15.588Z,992.84
2023-01-12T03:24:15.590Z,992.82
2023-01-12T03:25:15.597Z,992.83
2023-01-12T03:26:15.607Z,992.74
2023-01-12T03:27:15.636Z,992.8
2023-01-12T03:28:15.638Z,992.75
2023-01-12T03:29:15.656Z,992.76
2023-01-12T03:30:15.670Z,992.75
2023-01-12T03:31:15.762Z,992.76
2023-01-12T03:32:15.702Z,992.73
2023-01-12T03:33:15.719Z,992.81
2023-01-12T03:34:15.728Z,992.76
2023-01-12T03:35:15.752Z,992.71
2023-01-12T03:36:15.761Z,992.73
2023-01-12T03:37:15.780Z,992.72
2023-01-12T03:38:15.793Z,992.7
2023-01-12T03:39:15.834Z,992.78
2023-01-12T03:40:15.843Z,992.73
2023-01-12T03:41:15.841Z,992.73
2023-01-12T03:42:15.860Z,992.66
2023-01-12T03:43:15.908Z,992.7
2023-01-12T03:44:15.889Z,992.7
2023-01-12T03:45:15.927Z,992.72
2023-01-12T03:46:15.919Z,992.71
2023-01-12T03:47:15.932Z,992.66
2023-01-12T03:48:15.946Z,992.72
2023-01-12T03:49:15.964Z,992.68
2023-01-12T03:50:15.979Z,992.65
2023-01-12T03:51:15.990Z,992.64
2023-01-12T03:52:16.008Z,992.6
2023-01-12T03:53:16.021Z,992.62
2023-01-12T03:54:16.063Z,992.58
2023-01-12T03:55:16.077Z,992.56
2023-01-12T03:56:16.068Z,992.58
2023-01-12T03:57:16.088Z,992.63
2023-01-12T03:58:16.099Z,992.54
2023-01-12T03:59:16.118Z,992.61
2023-01-12T04:00:16.137Z,992.55
2023-01-12T04:01:16.223Z,992.49
2023-01-12T04:02:16.176Z,992.57
2023-01-12T04:03:16.207Z,992.53
2023-01-12T04:04:16.496Z,992.57
2023-01-12T04:05:16.209Z,992.57
2023-01-12T04:06:16.232Z,992.52
2023-01-12T04:07:16.230Z,992.58
2023-01-12T04:08:16.256Z,992.52
2023-01-12T04:09:16.271Z,992.53
2023-01-12T04:10:16.283Z,992.48
2023-01-12T04:11:16.328Z,992.53
2023-01-12T04:12:16.313Z,992.48
2023-01-12T04:13:16.327Z,992.48
2023-01-12T04:14:16.349Z,992.48
2023-01-12T04:15:16.375Z,992.48
2023-01-12T04:16:16.433Z,992.44
2023-01-12T04:17:16.401Z,992.45
2023-01-12T04:18:16.409Z,992.45
2023-01-12T04:19:16.433Z,992.47
2023-01-12T04:20:16.433Z,992.4
2023-01-12T04:21:16.455Z,992.43
2023-01-12T04:22:16.483Z,992.39
2023-01-12T04:23:16.482Z,992.39
2023-01-12T04:24:16.524Z,992.44
2023-01-12T04:25:16.512Z,992.38
2023-01-12T04:26:16.531Z,992.36
2023-01-12T04:27:16.569Z,992.4
2023-01-12T04:28:16.560Z,992.35
2023-01-12T04:29:16.575Z,992.32
2023-01-12T04:30:16.595Z,992.28
2023-01-12T04:31:16.700Z,992.2
2023-01-12T04:32:16.635Z,992.16
2023-01-12T04:33:16.646Z,992.17
2023-01-12T04:34:16.656Z,992.14
2023-01-12T04:35:16.671Z,992.1
2023-01-12T04:36:16.676Z,992.14
2023-01-12T04:37:16.704Z,992.14
2023-01-12T04:38:16.728Z,992.19
2023-01-12T04:39:16.730Z,992.11
2023-01-12T04:40:16.749Z,992.17
2023-01-12T04:41:16.775Z,992.1
2023-01-12T04:42:16.773Z,992.07
2023-01-12T04:43:16.815Z,991.98
2023-01-12T04:44:16.810Z,992.01
2023-01-12T04:45:16.819Z,991.95
2023-01-12T04:46:16.861Z,991.93
2023-01-12T04:47:16.849Z,991.95
2023-01-12T04:48:16.864Z,991.96
2023-01-12T04:49:16.891Z,991.9
2023-01-12T04:50:16.908Z,991.89
2023-01-12T04:51:16.914Z,991.87
2023-01-12T04:52:16.932Z,991.85
2023-01-12T04:53:17.002Z,991.9
2023-01-12T04:54:16.955Z,991.86
2023-01-12T04:55:16.982Z,991.88
2023-01-12T04:56:16.990Z,991.75
2023-01-12T04:57:17.028Z,991.82
2023-01-12T04:58:17.019Z,991.82
2023-01-12T04:59:17.069Z,991.77
2023-01-12T05:00:17.047Z,991.73
2023-01-12T05:01:17.214Z,991.7
2023-01-12T05:02:17.080Z,991.74
2023-01-12T05:03:17.113Z,991.73
2023-01-12T05:04:17.226Z,991.81
2023-01-12T05:05:17.128Z,991.77
2023-01-12T05:06:17.144Z,991.7
2023-01-12T05:07:17.169Z,991.63
2023-01-12T05:08:17.173Z,991.73
2023-01-12T05:09:19.770Z,991.74
2023-01-12T05:10:17.218Z,991.63
2023-01-12T05:11:17.228Z,991.64
2023-01-12T05:12:17.237Z,991.56
2023-01-12T05:13:17.245Z,991.61
2023-01-12T05:14:17.263Z,991.62
2023-01-12T05:15:17.319Z,991.58
2023-01-12T05:16:17.367Z,991.56
2023-01-12T05:17:17.308Z,991.53
2023-01-12T05:18:17.328Z,991.54
2023-01-12T05:19:17.360Z,991.53
2023-01-12T05:20:17.353Z,991.52
2023-01-12T05:21:17.369Z,991.49
2023-01-12T05:22:17.385Z,991.47
2023-01-12T05:23:17.402Z,991.35
2023-01-12T05:24:17.416Z,991.43
2023-01-12T05:25:17.429Z,991.43
2023-01-12T05:26:17.448Z,991.43
2023-01-12T05:27:17.462Z,991.4
2023-01-12T05:28:17.496Z,991.37
2023-01-12T05:29:17.494Z,991.38
2023-01-12T05:30:17.514Z,991.37
2023-01-12T05:31:17.686Z,991.33
2023-01-12T05:32:17.543Z,991.28
2023-01-12T05:33:17.563Z,991.29
2023-01-12T05:34:17.571Z,991.24
2023-01-12T05:35:17.582Z,991.25
2023-01-12T05:36:17.602Z,991.2
2023-01-12T05:37:17.621Z,991.22
2023-01-12T05:38:17.632Z,991.16
2023-01-12T05:39:17.648Z,991.14
2023-01-12T05:40:17.661Z,991.15
2023-01-12T05:41:17.680Z,991.13
2023-01-12T05:42:17.706Z,991.11
2023-01-12T05:43:17.738Z,991.07
2023-01-12T05:44:17.730Z,991.06
2023-01-12T05:45:17.741Z,991.05
2023-01-12T05:46:17.804Z,991.1
2023-01-12T05:47:17.799Z,990.97
2023-01-12T05:48:17.786Z,990.99
2023-01-12T05:49:17.805Z,990.98
2023-01-12T05:50:17.817Z,990.92
2023-01-12T05:51:17.839Z,990.95
2023-01-12T05:52:17.848Z,990.97
2023-01-12T05:53:17.857Z,990.94
2023-01-12T05:54:17.877Z,990.88
2023-01-12T05:55:17.890Z,990.88
2023-01-12T05:56:17.919Z,990.87
2023-01-12T05:57:17.930Z,990.86
2023-01-12T05:58:17.940Z,990.85
2023-01-12T05:59:17.957Z,990.86
2023-01-12T06:00:17.964Z,990.85
2023-01-12T06:01:18.045Z,990.81
2023-01-12T06:02:18.113Z,990.88
2023-01-12T06:03:18.034Z,990.81
2023-01-12T06:04:18.528Z,990.79
2023-01-12T06:05:18.044Z,990.78
2023-01-12T06:06:18.056Z,990.79
2023-01-12T06:07:18.071Z,990.84
2023-01-12T06:08:18.089Z,990.86
2023-01-12T06:09:18.103Z,990.78
2023-01-12T06:10:18.134Z,990.79
2023-01-12T06:11:18.141Z,990.76
2023-01-12T06:12:18.152Z,990.74
2023-01-12T06:13:18.171Z,990.81
2023-01-12T06:14:18.185Z,990.77
2023-01-12T06:15:18.205Z,990.74
2023-01-12T06:16:18.312Z,990.68
2023-01-12T06:17:18.231Z,990.71
2023-01-12T06:18:18.244Z,990.77
2023-01-12T06:19:18.285Z,990.67
2023-01-12T06:20:18.276Z,990.63
2023-01-12T06:21:18.294Z,990.62
2023-01-12T06:22:18.304Z,990.63
2023-01-12T06:23:18.330Z,990.66
2023-01-12T06:24:18.342Z,990.62
2023-01-12T06:25:18.352Z,990.57
2023-01-12T06:26:18.377Z,990.54
2023-01-12T06:27:18.385Z,990.56
2023-01-12T06:28:18.399Z,990.51
2023-01-12T06:29:18.415Z,990.52
2023-01-12T06:30:18.435Z,990.57
2023-01-12T06:31:18.537Z,990.51
2023-01-12T06:32:18.461Z,990.49
2023-01-12T06:33:18.483Z,990.47
2023-01-12T06:34:18.508Z,990.53
2023-01-12T06:35:19.800Z,990.5
2023-01-12T06:36:18.525Z,990.46
2023-01-12T06:37:18.542Z,990.49
2023-01-12T06:38:19.081Z,990.49
2023-01-12T06:39:18.572Z,990.45
2023-01-12T06:40:18.581Z,990.42
2023-01-12T06:41:18.597Z,990.51
2023-01-12T06:42:18.611Z,990.47
2023-01-12T06:43:18.627Z,990.39
2023-01-12T06:44:18.643Z,990.4
2023-01-12T06:45:18.659Z,990.41
2023-01-12T06:46:18.719Z,990.41
2023-01-12T06:47:18.692Z,990.39
2023-01-12T06:48:18.702Z,990.36
2023-01-12T06:49:18.723Z,990.36
2023-01-12T06:50:18.737Z,990.31
2023-01-12T06:51:18.787Z,990.39
2023-01-12T06:52:18.765Z,990.34
2023-01-12T06:53:18.783Z,990.33
2023-01-12T06:54:19.103Z,990.34
2023-01-12T06:55:18.815Z,990.33
2023-01-12T06:56:18.825Z,990.37
2023-01-12T06:57:18.847Z,990.31
2023-01-12T06:58:18.856Z,990.28
2023-01-12T06:59:18.879Z,990.29
2023-01-12T07:00:18.888Z,990.37
2023-01-12T07:01:18.992Z,990.31
2023-01-12T07:02:18.964Z,990.35
2023-01-12T07:03:18.935Z,990.35
2023-01-12T07:04:19.227Z,990.27
2023-01-12T07:05:18.972Z,990.34
2023-01-12T07:06:18.980Z,990.26
2023-01-12T07:07:19.025Z,990.31
2023-01-12T07:08:19.041Z,990.39
2023-01-12T07:09:19.025Z,990.28
2023-01-12T07:10:19.044Z,990.34
2023-01-12T07:11:19.058Z,990.34
2023-01-12T07:12:19.080Z,990.3
2023-01-12T07:13:19.088Z,990.27
2023-01-12T07:14:19.105Z,990.26
2023-01-12T07:15:19.126Z,990.14
2023-01-12T07:16:19.271Z,990.2
2023-01-12T07:17:19.145Z,990.15
2023-01-12T07:18:19.162Z,990.19
2023-01-12T07:19:19.189Z,990.06
2023-01-12T07:20:19.195Z,990.15
2023-01-12T07:21:19.206Z,990.09
2023-01-12T07:22:19.227Z,990.13
2023-01-12T07:23:19.269Z,990.12
2023-01-12T07:24:19.271Z,990.06
2023-01-12T07:25:19.273Z,990.04
2023-01-12T07:26:19.286Z,990.01
2023-01-12T07:27:19.299Z,990.03
2023-01-12T07:28:19.336Z,990.08
2023-01-12T07:29:19.333Z,990.05
2023-01-12T07:30:19.348Z,990.03
2023-01-12T07:31:19.552Z,990.02
2023-01-12T07:32:19.375Z,990
2023-01-12T07:33:19.395Z,990.05
2023-01-12T07:34:19.413Z,990.07
2023-01-12T07:35:19.436Z,989.96
2023-01-12T07:36:19.444Z,989.99
2023-01-12T07:37:19.449Z,989.99
2023-01-12T07:38:19.467Z,989.93
2023-01-12T07:39:19.513Z,989.92
2023-01-12T07:40:19.501Z,990.03
2023-01-12T07:41:19.513Z,990.01
2023-01-12T07:42:19.533Z,989.99
2023-01-12T07:43:19.552Z,989.88
2023-01-12T07:44:19.566Z,989.86
2023-01-12T07:45:19.576Z,989.96
2023-01-12T07:46:19.636Z,989.87
2023-01-12T07:47:19.612Z,989.87
2023-01-12T07:48:19.620Z,989.89
2023-01-12T07:49:19.638Z,989.75
2023-01-12T07:50:19.651Z,989.72
2023-01-12T07:51:19.667Z,989.91
2023-01-12T07:52:19.682Z,989.81
2023-01-12T07:53:19.708Z,989.82
2023-01-12T07:54:19.709Z,989.85
2023-01-12T07:55:19.749Z,989.76
2023-01-12T07:56:19.758Z,989.72
2023-01-12T07:57:19.779Z,989.81
2023-01-12T07:58:19.773Z,989.85
2023-01-12T07:59:19.793Z,989.73
2023-01-12T08:00:19.803Z,989.72
2023-01-12T08:01:19.981Z,989.63
2023-01-12T08:02:19.860Z,989.54
2023-01-12T08:03:19.856Z,989.42
2023-01-12T08:04:20.267Z,989.46
2023-01-12T08:05:19.901Z,989.51
2023-01-12T08:06:19.893Z,989.5
2023-01-12T08:07:19.917Z,989.62
2023-01-12T08:08:19.927Z,989.49
2023-01-12T08:09:19.943Z,989.66
2023-01-12T08:10:19.955Z,989.73
2023-01-12T08:11:20.007Z,989.67
2023-01-12T08:12:19.987Z,989.67
2023-01-12T08:13:20.003Z,989.68
2023-01-12T08:14:20.021Z,989.57
2023-01-12T08:15:20.035Z,989.6
2023-01-12T08:16:20.083Z,989.53
2023-01-12T08:17:20.087Z,989.57
2023-01-12T08:18:20.077Z,989.66
2023-01-12T08:19:20.092Z,989.59
2023-01-12T08:20:20.119Z,989.52
2023-01-12T08:21:20.130Z,989.57
2023-01-12T08:22:20.140Z,989.51
2023-01-12T08:23:20.156Z,989.48
2023-01-12T08:24:20.169Z,989.54
2023-01-12T08:25:20.186Z,989.48
2023-01-12T08:26:20.200Z,989.55
2023-01-12T08:27:20.269Z,989.46
2023-01-12T08:28:20.251Z,989.5
2023-01-12T08:29:20.246Z,989.39
2023-01-12T08:30:20.261Z,989.4
2023-01-12T08:31:20.339Z,989.38
2023-01-12T08:32:20.293Z,989.33
2023-01-12T08:33:20.310Z,989.26
2023-01-12T08:34:20.320Z,989.34
2023-01-12T08:35:20.337Z,989.33
2023-01-12T08:36:20.354Z,989.34
2023-01-12T08:37:20.371Z,989.27
2023-01-12T08:38:20.384Z,989.26
2023-01-12T08:39:20.399Z,989.27
2023-01-12T08:40:20.415Z,989.22
2023-01-12T08:41:20.430Z,989.23
2023-01-12T08:42:20.442Z,989.17
2023-01-12T08:43:20.493Z,989.2
2023-01-12T08:44:20.475Z,989.13
2023-01-12T08:45:20.494Z,989.15
2023-01-12T08:46:20.570Z,989.14
2023-01-12T08:47:20.521Z,989.04
2023-01-12T08:48:20.537Z,989.09
2023-01-12T08:49:20.819Z,989.07
2023-01-12T08:50:20.570Z,989.12
2023-01-12T08:51:20.581Z,989.13
2023-01-12T08:52:20.600Z,989.15
2023-01-12T08:53:20.617Z,989.14
2023-01-12T08:54:20.638Z,989.24
2023-01-12T08:55:20.643Z,988.96
2023-01-12T08:56:20.665Z,989.12
2023-01-12T08:57:20.673Z,989.11
2023-01-12T08:58:20.690Z,989.21
2023-01-12T08:59:20.752Z,988.93
2023-01-12T09:00:20.726Z,989.04
2023-01-12T09:01:20.826Z,989.04
2023-01-12T09:02:20.779Z,989.15
2023-01-12T09:03:20.766Z,989.25
2023-01-12T09:04:20.981Z,989.17
2023-01-12T09:05:20.799Z,989.22
2023-01-12T09:06:20.822Z,989.16
2023-01-12T09:07:20.839Z,989.2
2023-01-12T09:08:20.856Z,989.18
2023-01-12T09:09:20.861Z,989.15
2023-01-12T09:10:20.900Z,989.08
2023-01-12T09:11:20.891Z,989.2
2023-01-12T09:12:22.516Z,989.22
2023-01-12T09:13:20.928Z,989.23
2023-01-12T09:14:20.946Z,989.34
2023-01-12T09:15:20.988Z,989.36
2023-01-12T09:16:21.020Z,989.31
2023-01-12T09:17:20.984Z,989.23
2023-01-12T09:18:20.999Z,989.36
2023-01-12T09:19:21.014Z,989.31
2023-01-12T09:20:21.035Z,989.31
2023-01-12T09:21:21.041Z,989.29
2023-01-12T09:22:21.064Z,989.31
2023-01-12T09:23:21.082Z,989.43
2023-01-12T09:24:21.092Z,989.39
2023-01-12T09:25:21.107Z,989.42
2023-01-12T09:26:21.122Z,989.42
2023-01-12T09:27:21.139Z,989.46
2023-01-12T09:28:21.155Z,989.45
2023-01-12T09:29:21.165Z,989.41
2023-01-12T09:30:21.182Z,989.52
2023-01-12T09:31:21.299Z,989.5
2023-01-12T09:32:25.914Z,989.51
2023-01-12T09:33:22.859Z,989.48
2023-01-12T09:34:21.246Z,989.4
2023-01-12T09:35:21.265Z,989.56
2023-01-12T09:36:21.279Z,989.65
2023-01-12T09:37:21.290Z,989.62
2023-01-12T09:38:21.309Z,989.61
2023-01-12T09:39:28.799Z,989.56
2023-01-12T09:40:21.344Z,989.58
2023-01-12T09:41:21.370Z,989.64
2023-01-12T09:42:21.371Z,989.63
2023-01-12T09:43:21.382Z,989.64
2023-01-12T09:44:21.399Z,989.6
2023-01-12T09:45:21.418Z,989.69
2023-01-12T09:46:21.431Z,989.69
2023-01-12T09:47:21.486Z,989.71
2023-01-12T09:48:21.466Z,989.66
2023-01-12T09:49:21.476Z,989.65
2023-01-12T09:50:21.505Z,989.68
2023-01-12T09:51:21.508Z,989.66
2023-01-12T09:52:21.529Z,989.63
2023-01-12T09:53:21.542Z,989.64
2023-01-12T09:54:21.551Z,989.6
2023-01-12T09:55:21.567Z,989.58
2023-01-12T09:56:21.583Z,989.66
2023-01-12T09:57:28.692Z,989.63
2023-01-12T09:58:21.617Z,989.63
2023-01-12T09:59:21.632Z,989.71
2023-01-12T10:00:21.652Z,989.72
2023-01-12T10:01:29.073Z,989.64
2023-01-12T10:02:21.722Z,989.73
2023-01-12T10:03:21.823Z,989.65
2023-01-12T10:04:21.907Z,989.8
2023-01-12T10:05:22.076Z,989.67
2023-01-12T10:06:21.751Z,989.75
2023-01-12T10:07:21.762Z,989.73
2023-01-12T10:08:21.775Z,989.86
2023-01-12T10:09:21.812Z,989.79
2023-01-12T10:10:21.841Z,989.78
2023-01-12T10:11:21.821Z,989.83
2023-01-12T10:12:21.836Z,989.79
2023-01-12T10:13:21.850Z,989.87
2023-01-12T10:14:21.867Z,989.8
2023-01-12T10:15:21.876Z,989.81
2023-01-12T10:16:21.928Z,989.86
2023-01-12T10:17:21.909Z,989.89
2023-01-12T10:18:21.930Z,989.87
2023-01-12T10:19:21.967Z,989.83
2023-01-12T10:20:21.957Z,989.87
2023-01-12T10:21:21.971Z,989.91
2023-01-12T10:22:21.994Z,989.96
2023-01-12T10:23:22.022Z,989.96
2023-01-12T10:24:22.030Z,989.93
2023-01-12T10:25:22.032Z,989.98
2023-01-12T10:26:22.050Z,990.03
2023-01-12T10:27:22.068Z,989.97
2023-01-12T10:28:22.087Z,989.96
2023-01-12T10:29:22.119Z,989.98
2023-01-12T10:30:22.111Z,990.02
2023-01-12T10:31:22.149Z,990
2023-01-12T10:32:23.212Z,990.05
2023-01-12T10:33:22.160Z,989.88
2023-01-12T10:34:22.177Z,990.02
2023-01-12T10:35:22.214Z,990.07
2023-01-12T10:36:22.210Z,990.03
2023-01-12T10:37:22.217Z,989.99
2023-01-12T10:38:22.244Z,990.04
2023-01-12T10:39:22.267Z,989.99
2023-01-12T10:40:22.264Z,990.07
2023-01-12T10:41:22.278Z,990.06
2023-01-12T10:42:22.296Z,990.02
2023-01-12T10:43:22.369Z,990.03
2023-01-12T10:44:22.329Z,990
2023-01-12T10:45:22.357Z,990.04
2023-01-12T10:46:22.356Z,990.03
2023-01-12T10:47:22.382Z,989.98
2023-01-12T10:48:22.414Z,990.04
2023-01-12T10:49:22.411Z,990.07
2023-01-12T10:50:22.417Z,990.02
2023-01-12T10:51:22.458Z,990.04
2023-01-12T10:52:22.452Z,990.13
2023-01-12T10:53:22.462Z,990.08
2023-01-12T10:54:22.498Z,990.06
2023-01-12T10:55:22.501Z,990.04
2023-01-12T10:56:22.523Z,990.09
2023-01-12T10:57:22.564Z,990.05
2023-01-12T10:58:22.548Z,990.02
2023-01-12T10:59:22.556Z,990.01
2023-01-12T11:00:24.169Z,990
2023-01-12T11:01:22.717Z,990.04
2023-01-12T11:02:22.822Z,989.99
2023-01-12T11:03:22.621Z,990.03
2023-01-12T11:04:23.082Z,990.02
2023-01-12T11:05:22.649Z,990.02
2023-01-12T11:06:22.669Z,989.95
2023-01-12T11:07:22.706Z,989.91
2023-01-12T11:08:22.695Z,989.99
2023-01-12T11:09:22.728Z,990
2023-01-12T11:10:22.725Z,989.92
2023-01-12T11:11:22.742Z,989.93
2023-01-12T11:12:22.756Z,989.91
2023-01-12T11:13:22.775Z,989.97
2023-01-12T11:14:24.341Z,989.92
2023-01-12T11:15:22.804Z,989.96
2023-01-12T11:16:22.874Z,989.97
2023-01-12T11:17:22.835Z,989.94
2023-01-12T11:18:22.851Z,989.94
2023-01-12T11:19:22.867Z,989.94
2023-01-12T11:20:22.877Z,989.94
2023-01-12T11:21:22.895Z,989.95
2023-01-12T11:22:22.919Z,989.95
2023-01-12T11:23:22.955Z,989.88
2023-01-12T11:24:22.942Z,989.92
2023-01-12T11:25:22.968Z,989.9
2023-01-12T11:26:22.971Z,989.97
2023-01-12T11:27:22.986Z,989.83
2023-01-12T11:28:23.002Z,989.89
2023-01-12T11:29:23.021Z,989.88
2023-01-12T11:30:23.032Z,989.73
2023-01-12T11:31:23.056Z,989.83
2023-01-12T11:32:23.063Z,989.81
2023-01-12T11:33:23.083Z,989.89
2023-01-12T11:34:23.102Z,989.94
2023-01-12T11:35:23.113Z,989.88
2023-01-12T11:36:23.126Z,989.85
2023-01-12T11:37:23.140Z,989.85
2023-01-12T11:38:23.158Z,989.86
2023-01-12T11:39:23.196Z,989.78
2023-01-12T11:40:23.187Z,989.76
2023-01-12T11:41:23.204Z,989.81
2023-01-12T11:42:23.217Z,989.74
2023-01-12T11:43:23.240Z,989.79
2023-01-12T11:44:23.247Z,989.77
2023-01-12T11:45:23.266Z,989.73
2023-01-12T11:46:23.338Z,989.76
2023-01-12T11:47:23.299Z,989.76
2023-01-12T11:48:23.311Z,989.75
2023-01-12T11:49:23.331Z,989.77
2023-01-12T11:50:23.360Z,989.76
2023-01-12T11:51:23.359Z,989.8
2023-01-12T11:52:23.373Z,989.76
2023-01-12T11:53:23.397Z,989.72
2023-01-12T11:54:23.403Z,989.69
2023-01-12T11:55:23.452Z,989.69
2023-01-12T11:56:23.432Z,989.75
2023-01-12T11:57:23.468Z,989.71
2023-01-12T11:58:23.464Z,989.72
2023-01-12T11:59:23.484Z,989.66
2023-01-12T12:00:23.499Z,989.7
2023-01-12T12:01:23.529Z,989.69
2023-01-12T12:02:23.595Z,989.67
2023-01-12T12:03:23.616Z,989.66
2023-01-12T12:04:23.908Z,989.67
2023-01-12T12:05:23.573Z,989.58
2023-01-12T12:06:23.588Z,989.63
2023-01-12T12:07:23.606Z,989.64
2023-01-12T12:08:23.622Z,989.62
2023-01-12T12:09:23.633Z,989.64
2023-01-12T12:10:23.813Z,989.61
2023-01-12T12:11:23.702Z,989.68
2023-01-12T12:12:23.679Z,989.68
2023-01-12T12:13:23.695Z,989.69
2023-01-12T12:14:23.715Z,989.61
2023-01-12T12:15:23.746Z,989.63
2023-01-12T12:16:23.748Z,989.62
2023-01-12T12:17:23.759Z,989.67
2023-01-12T12:18:23.789Z,989.63
2023-01-12T12:19:23.792Z,989.6
2023-01-12T12:20:23.807Z,989.64
2023-01-12T12:21:23.815Z,989.63
2023-01-12T12:22:23.844Z,989.6
2023-01-12T12:23:23.847Z,989.6
2023-01-12T12:24:23.864Z,989.55
2023-01-12T12:25:23.877Z,989.61
2023-01-12T12:26:23.902Z,989.59
2023-01-12T12:27:23.932Z,989.52
2023-01-12T12:28:23.927Z,989.56
2023-01-12T12:29:23.944Z,989.5
2023-01-12T12:30:23.956Z,989.57